Time;durP1;ratioP1;P1;durP2;ratioP2;P2;SDS_P1;SDS_P2;PMS_P1;PMS_P2;Temp;Humidity;BMP_temperature;BMP_pressure;BME280_temperature;BME280_humidity;BME280_pressure;Samples;Min_cycle;Max_cycle;Signal;HPM_P1;HPM_P2
2021/03/11 00:00:44;;;;;;;18.10;6.30;;;3.30;92.00;;;;;;5040186;28;20079;-89
2021/03/11 00:03:10;;;;;;;9.18;5.57;;;3.30;91.80;;;;;;5057013;28;20025;-90
2021/03/11 00:05:38;;;;;;;8.30;5.35;;;3.20;92.40;;;;;;5040379;28;20020;-90
2021/03/11 00:08:04;;;;;;;6.57;3.95;;;3.30;92.30;;;;;;5040500;28;20405;-90
2021/03/11 00:10:30;;;;;;;6.85;4.97;;;3.30;92.10;;;;;;5040476;28;20025;-89
2021/03/11 00:12:56;;;;;;;8.70;5.45;;;3.40;91.50;;;;;;5041300;28;20047;-90
2021/03/11 00:15:24;;;;;;;8.15;4.97;;;3.40;91.00;;;;;;5055985;28;20028;-90
2021/03/11 00:17:49;;;;;;;8.45;4.90;;;3.40;90.70;;;;;;5039770;28;20035;-90
2021/03/11 00:20:20;;;;;;;21.30;6.35;;;3.50;90.70;;;;;;5040260;28;20107;-90
2021/03/11 00:22:47;;;;;;;10.65;5.30;;;3.50;91.00;;;;;;5078911;28;20020;-89
2021/03/11 00:25:15;;;;;;;7.88;4.65;;;3.40;91.30;;;;;;5043380;28;20029;-90
2021/03/11 00:27:41;;;;;;;9.13;5.65;;;3.40;91.60;;;;;;5043563;28;20025;-89
2021/03/11 00:30:09;;;;;;;8.55;4.50;;;3.40;91.20;;;;;;5044057;28;20021;-90
2021/03/11 00:32:35;;;;;;;8.57;4.75;;;3.30;90.70;;;;;;5043321;28;20025;-89
2021/03/11 00:35:01;;;;;;;13.73;5.00;;;3.30;90.50;;;;;;5042934;28;20367;-90
2021/03/11 00:37:26;;;;;;;8.15;5.38;;;3.30;91.10;;;;;;5044425;28;20127;-90
2021/03/11 00:39:52;;;;;;;8.38;4.25;;;3.40;91.20;;;;;;5045031;28;20024;-90
2021/03/11 00:42:18;;;;;;;11.77;5.50;;;3.40;90.60;;;;;;5062868;28;20029;-90
2021/03/11 00:44:44;;;;;;;8.93;4.10;;;3.40;90.00;;;;;;5045671;28;20078;-91
2021/03/11 00:47:10;;;;;;;5.30;3.30;;;3.40;90.00;;;;;;5044567;28;20031;-90
2021/03/11 00:49:36;;;;;;;7.78;4.32;;;3.40;89.60;;;;;;5043440;28;20028;-90
2021/03/11 00:52:03;;;;;;;7.57;4.10;;;3.50;89.20;;;;;;5043483;28;20029;-90
2021/03/11 00:54:29;;;;;;;6.50;3.63;;;3.60;89.80;;;;;;5042578;28;20504;-90
2021/03/11 00:56:54;;;;;;;7.65;4.18;;;3.50;88.20;;;;;;5042881;28;20029;-90
2021/03/11 00:59:21;;;;;;;7.30;4.40;;;3.50;88.10;;;;;;5077679;28;20028;-90
2021/03/11 01:01:46;;;;;;;9.00;4.72;;;3.50;88.20;;;;;;5043018;28;20044;-91
2021/03/11 01:04:13;;;;;;;6.40;3.63;;;3.50;88.20;;;;;;5043118;28;20028;-90
2021/03/11 01:06:39;;;;;;;8.50;4.38;;;3.60;88.30;;;;;;5042798;28;20020;-90
2021/03/11 01:09:05;;;;;;;9.90;4.15;;;3.70;88.20;;;;;;5042972;28;20028;-90
2021/03/11 01:11:30;;;;;;;7.18;4.10;;;3.70;87.60;;;;;;5042823;28;20303;-89
2021/03/11 01:13:56;;;;;;;6.22;3.85;;;3.50;86.90;;;;;;5042881;28;20035;-90
2021/03/11 01:16:22;;;;;;;8.00;3.45;;;3.30;86.60;;;;;;5058772;28;20197;-90
2021/03/11 01:18:48;;;;;;;6.93;3.75;;;3.30;87.50;;;;;;5042989;28;20024;-90
2021/03/11 01:21:14;;;;;;;5.18;3.47;;;3.40;86.70;;;;;;5042705;28;20062;-90
2021/03/11 01:23:40;;;;;;;10.55;3.50;;;3.20;86.40;;;;;;5042960;28;20070;-90
2021/03/11 01:26:05;;;;;;;6.13;3.58;;;3.00;86.70;;;;;;5042658;28;20044;-90
2021/03/11 01:28:31;;;;;;;5.15;3.30;;;3.00;87.00;;;;;;5042459;28;20059;-90
2021/03/11 01:30:57;;;;;;;6.40;3.50;;;3.10;87.00;;;;;;5043128;28;20138;-89
2021/03/11 01:33:22;;;;;;;4.65;3.08;;;3.00;86.70;;;;;;5057916;28;20034;-90
2021/03/11 01:35:49;;;;;;;5.78;3.17;;;2.90;87.30;;;;;;5042571;28;20028;-90
2021/03/11 01:38:14;;;;;;;5.18;2.95;;;2.90;87.60;;;;;;5042536;28;20031;-89
2021/03/11 01:40:40;;;;;;;6.40;3.85;;;2.90;87.20;;;;;;5042220;28;20025;-90
2021/03/11 01:43:06;;;;;;;5.65;3.15;;;3.00;86.80;;;;;;5044645;28;20067;-90
2021/03/11 01:45:32;;;;;;;9.25;3.38;;;3.00;86.90;;;;;;5044071;28;20020;-89
2021/03/11 01:47:58;;;;;;;21.02;4.43;;;3.10;86.20;;;;;;5041477;28;20082;-89
2021/03/11 01:50:24;;;;;;;10.88;4.47;;;3.30;85.90;;;;;;5041962;28;20028;-89
2021/03/11 01:52:50;;;;;;;5.63;3.42;;;3.30;85.30;;;;;;5042487;28;20451;-90
2021/03/11 01:55:18;;;;;;;6.32;3.58;;;3.30;85.40;;;;;;5042091;28;20020;-90
2021/03/11 01:57:47;;;;;;;5.15;3.25;;;3.40;86.20;;;;;;5041154;28;20035;-90
2021/03/11 02:00:13;;;;;;;15.60;4.45;;;3.30;85.20;;;;;;5041557;28;20460;-90
2021/03/11 02:02:41;;;;;;;7.00;3.67;;;3.30;85.40;;;;;;5041446;28;20024;-90
2021/03/11 02:05:09;;;;;;;6.03;3.30;;;3.20;85.80;;;;;;5057586;28;20024;-89
2021/03/11 02:07:35;;;;;;;24.05;4.10;;;3.10;85.30;;;;;;5041386;28;20028;-90
2021/03/11 02:10:01;;;;;;;5.55;3.47;;;3.10;86.30;;;;;;5041820;28;20096;-89
2021/03/11 02:12:32;;;;;;;5.05;3.13;;;3.20;85.80;;;;;;5041350;28;20029;-89
2021/03/11 02:15:13;;;;;;;4.38;3.20;;;3.40;86.30;;;;;;5041126;28;20024;-89
2021/03/11 02:18:03;;;;;;;4.82;3.30;;;3.40;87.20;;;;;;5040949;28;20035;-90
2021/03/11 02:20:46;;;;;;;7.10;3.22;;;3.30;85.40;;;;;;5040897;28;20070;-90
2021/03/11 02:23:37;;;;;;;4.40;3.15;;;3.20;86.00;;;;;;5075289;28;20017;-89
2021/03/11 02:26:48;;;;;;;6.90;3.20;;;3.10;84.50;;;;;;5057334;28;20056;-89
2021/03/11 02:29:31;;;;;;;9.60;3.25;;;3.20;84.70;;;;;;5113344;22;20048;-91
2021/03/11 02:32:06;;;;;;;5.60;2.90;;;3.20;83.60;;;;;;5084946;27;20022;-88
2021/03/11 02:34:56;;;;;;;13.63;3.90;;;3.50;84.80;;;;;;5084979;28;20016;-91
2021/03/11 02:37:46;;;;;;;7.10;3.50;;;3.70;85.00;;;;;;5083603;28;20710;-92
2021/03/11 02:40:31;;;;;;;5.97;2.95;;;3.70;85.20;;;;;;5084542;28;20044;-92
2021/03/11 02:42:59;;;;;;;5.00;2.97;;;3.80;84.40;;;;;;5082637;27;20174;-92
2021/03/11 02:45:32;;;;;;;46.20;6.85;;;3.50;82.50;;;;;;5081804;28;20032;-90
2021/03/11 02:48:10;;;;;;;4.80;3.08;;;3.60;83.20;;;;;;5081779;28;20123;-93
2021/03/11 02:50:40;;;;;;;7.95;3.75;;;3.60;82.90;;;;;;5083175;28;20004;-92
2021/03/11 02:53:12;;;;;;;5.13;3.45;;;3.60;82.90;;;;;;5084788;27;20012;-90
2021/03/11 02:55:53;;;;;;;6.53;3.15;;;3.70;81.00;;;;;;5084532;28;20020;-90
2021/03/11 02:58:24;;;;;;;4.78;2.70;;;4.00;80.70;;;;;;5066208;28;20040;-93
2021/03/11 03:01:19;;;;;;;5.05;3.10;;;4.00;79.90;;;;;;5063480;28;20019;-91
2021/03/11 03:03:53;;;;;;;5.40;2.90;;;3.90;79.00;;;;;;5077758;28;20027;-90
2021/03/11 03:06:23;;;;;;;5.95;3.42;;;3.70;81.30;;;;;;5061544;28;20052;-91
2021/03/11 03:08:55;;;;;;;4.47;2.70;;;3.60;83.20;;;;;;5062411;28;20046;-91
2021/03/11 03:11:23;;;;;;;6.88;2.97;;;3.60;81.40;;;;;;5063450;28;20037;-90
2021/03/11 03:13:53;;;;;;;6.40;2.83;;;3.70;80.20;;;;;;5063448;28;20042;-91
2021/03/11 03:16:27;;;;;;;15.70;3.75;;;3.70;80.70;;;;;;5063577;28;20020;-91
2021/03/11 03:19:00;;;;;;;4.68;2.58;;;3.70;81.30;;;;;;5063657;28;20036;-89
2021/03/11 03:21:51;;;;;;;6.97;3.10;;;3.80;82.30;;;;;;5063613;28;20111;-91
2021/03/11 03:24:19;;;;;;;13.10;3.38;;;3.90;81.70;;;;;;5063565;28;20037;-91
2021/03/11 03:26:48;;;;;;;33.05;4.07;;;4.10;81.30;;;;;;5063795;28;20028;-91
2021/03/11 03:29:17;;;;;;;5.45;3.20;;;4.20;81.30;;;;;;5062852;28;20020;-91
2021/03/11 03:31:59;;;;;;;4.72;3.05;;;4.20;81.90;;;;;;5065255;28;20072;-91
2021/03/11 03:34:35;;;;;;;;;;;4.20;79.80;;;;;;5064880;28;20012;-93
2021/03/11 03:37:04;;;;;;;97.05;10.02;;;4.10;78.80;;;;;;5062186;28;19906;-90
2021/03/11 03:39:41;;;;;;;6.22;2.70;;;4.00;81.70;;;;;;5062575;28;20055;-91
2021/03/11 03:42:15;;;;;;;5.78;3.05;;;3.90;79.80;;;;;;5063923;28;20009;-91
2021/03/11 03:44:45;;;;;;;13.88;3.58;;;4.00;81.20;;;;;;5063828;28;20020;-89
2021/03/11 03:47:18;;;;;;;10.57;3.78;;;4.20;82.10;;;;;;5064137;28;20093;-91
2021/03/11 03:49:44;;;;;;;9.30;3.67;;;4.40;81.90;;;;;;5063897;28;20019;-91
2021/03/11 03:52:21;;;;;;;7.68;2.92;;;4.40;78.60;;;;;;5064020;28;20012;-91
2021/03/11 03:54:53;;;;;;;11.88;3.95;;;4.20;78.60;;;;;;5063382;28;20020;-91
2021/03/11 03:57:29;;;;;;;9.75;2.75;;;4.20;79.20;;;;;;5063273;28;20009;-90
2021/03/11 04:00:03;;;;;;;14.25;2.65;;;4.20;77.40;;;;;;5063695;28;20028;-91
2021/03/11 04:02:35;;;;;;;64.22;8.85;;;4.20;77.40;;;;;;5079284;28;20066;-91
2021/03/11 04:05:07;;;;;;;6.72;2.45;;;4.30;78.20;;;;;;5064148;28;20035;-90
2021/03/11 04:07:41;;;;;;;14.80;3.28;;;4.40;78.40;;;;;;5063395;28;20012;-91
2021/03/11 04:10:13;;;;;;;10.30;3.17;;;4.40;78.60;;;;;;5063871;28;20032;-90
2021/03/11 04:12:43;;;;;;;4.95;2.38;;;4.40;78.70;;;;;;5063723;28;20079;-90
2021/03/11 04:15:17;;;;;;;4.18;2.35;;;4.30;77.40;;;;;;5063740;28;20027;-90
2021/03/11 04:17:54;;;;;;;5.90;2.15;;;4.40;78.40;;;;;;5062757;28;20017;-90
2021/03/11 04:20:26;;;;;;;4.05;2.22;;;4.30;79.30;;;;;;5063501;28;20017;-91
2021/03/11 04:22:57;;;;;;;3.08;2.20;;;4.40;80.40;;;;;;5064281;28;20028;-91
2021/03/11 04:25:24;;;;;;;3.75;2.63;;;4.30;79.30;;;;;;5063078;28;20062;-90
2021/03/11 04:27:58;;;;;;;4.40;2.50;;;4.20;78.90;;;;;;5062966;28;20016;-90
2021/03/11 04:30:24;;;;;;;17.45;3.35;;;3.90;80.00;;;;;;5062382;28;20021;-89
2021/03/11 04:32:51;;;;;;;7.43;2.92;;;4.00;80.60;;;;;;5063371;28;20028;-91
2021/03/11 04:35:20;;;;;;;5.00;2.42;;;4.10;80.80;;;;;;5063307;28;20032;-90
2021/03/11 04:37:49;;;;;;;8.23;2.90;;;4.20;79.60;;;;;;5062985;28;20017;-90
2021/03/11 04:40:34;;;;;;;5.10;2.88;;;4.00;80.70;;;;;;5074562;28;20040;-90
2021/03/11 04:43:03;;;;;;;7.95;3.15;;;3.90;81.40;;;;;;5061036;28;20017;-90
2021/03/11 04:45:45;;;;;;;32.42;4.50;;;3.90;81.80;;;;;;5063955;28;20000;-92
2021/03/11 04:48:23;;;;;;;19.55;3.65;;;4.00;81.70;;;;;;5063458;28;20028;-92
2021/03/11 04:51:13;;;;;;;7.82;2.83;;;4.20;80.80;;;;;;5063056;28;20016;-91
2021/03/11 04:53:42;;;;;;;5.30;2.03;;;4.40;79.70;;;;;;5063458;28;20062;-91
2021/03/11 04:56:28;;;;;;;12.15;2.03;;;4.50;78.10;;;;;;5081353;28;20062;-91
2021/03/11 04:59:08;;;;;;;2.85;1.88;;;4.60;77.90;;;;;;5062889;28;20037;-91
2021/03/11 05:01:42;;;;;;;8.10;2.30;;;4.60;77.40;;;;;;5063331;28;20016;-91
2021/03/11 05:04:16;;;;;;;7.50;2.38;;;4.60;76.40;;;;;;5062095;28;20112;-91
2021/03/11 05:06:44;;;;;;;3.25;2.10;;;4.70;75.50;;;;;;5062959;28;20092;-91
2021/03/11 05:09:10;;;;;;;2.22;1.90;;;4.70;74.70;;;;;;5066022;28;20013;-91
2021/03/11 05:11:35;;;;;;;7.97;2.67;;;4.60;75.80;;;;;;5066858;28;20034;-91
2021/03/11 05:14:12;;;;;;;9.63;2.05;;;4.50;76.10;;;;;;5066656;28;20100;-90
2021/03/11 05:16:38;;;;;;;4.97;2.53;;;4.40;76.00;;;;;;5066009;28;20015;-90
2021/03/11 05:19:04;;;;;;;4.75;2.38;;;4.40;76.20;;;;;;5066583;23;20060;-72
2021/03/11 05:21:29;;;;;;;6.03;2.58;;;4.30;76.00;;;;;;5095649;28;20032;-72
2021/03/11 05:23:55;;;;;;;63.55;8.07;;;4.30;75.80;;;;;;5095592;28;20025;-72
2021/03/11 05:26:21;;;;;;;3.17;2.20;;;4.40;74.60;;;;;;5077415;28;20095;-72
2021/03/11 05:28:47;;;;;;;8.00;2.25;;;4.50;73.70;;;;;;5095308;28;20058;-72
2021/03/11 05:31:12;;;;;;;21.30;5.10;;;4.60;73.60;;;;;;5095565;28;20028;-72
2021/03/11 05:33:38;;;;;;;3.03;2.08;;;4.60;73.20;;;;;;5095239;28;20032;-73
2021/03/11 05:36:04;;;;;;;17.92;3.03;;;4.70;72.30;;;;;;5095294;28;20052;-72
2021/03/11 05:38:30;;;;;;;19.02;2.85;;;4.70;72.00;;;;;;5060383;28;20039;-73
2021/03/11 05:40:56;;;;;;;15.30;3.03;;;4.80;71.90;;;;;;5077408;28;20025;-72
2021/03/11 05:43:23;;;;;;;30.33;4.32;;;4.90;72.60;;;;;;5077324;28;20057;-73
2021/03/11 05:45:50;;;;;;;21.35;2.58;;;5.00;73.70;;;;;;5077274;28;20097;-73
2021/03/11 05:48:17;;;;;;;10.52;3.03;;;5.00;73.20;;;;;;5060130;28;20036;-72
2021/03/11 05:50:43;;;;;;;10.73;2.47;;;4.90;73.60;;;;;;5095194;28;20032;-73
2021/03/11 05:53:11;;;;;;;25.67;3.85;;;5.00;73.90;;;;;;5095286;28;20036;-72
2021/03/11 05:55:39;;;;;;;5.82;2.92;;;5.10;74.60;;;;;;5095180;28;20031;-73
2021/03/11 05:58:07;;;;;;;8.00;1.70;;;5.20;73.50;;;;;;5076841;28;20058;-72
2021/03/11 06:00:33;;;;;;;9.27;2.50;;;5.20;72.90;;;;;;5095048;28;20502;-73
2021/03/11 06:03:00;;;;;;;3.78;2.10;;;5.10;73.70;;;;;;5094942;28;20097;-73
2021/03/11 06:05:26;;;;;;;4.20;2.05;;;5.20;73.30;;;;;;5095376;28;20020;-72
2021/03/11 06:07:52;;;;;;;3.30;1.60;;;5.20;73.10;;;;;;5094784;28;20016;-72
2021/03/11 06:10:20;;;;;;;4.10;2.28;;;5.10;72.90;;;;;;5094732;28;20056;-73
2021/03/11 06:12:48;;;;;;;9.05;2.15;;;4.90;73.50;;;;;;5094707;28;20024;-72
2021/03/11 06:15:17;;;;;;;19.45;3.08;;;5.00;74.70;;;;;;5076451;28;20107;-72
2021/03/11 06:17:43;;;;;;;5.93;1.83;;;4.90;75.20;;;;;;5094526;28;20032;-72
2021/03/11 06:20:11;;;;;;;7.97;2.05;;;4.90;74.90;;;;;;5094388;28;20387;-73
2021/03/11 06:22:37;;;;;;;5.13;1.98;;;5.00;75.60;;;;;;5093526;28;20028;-72
2021/03/11 06:25:05;;;;;;;4.00;1.90;;;5.10;76.50;;;;;;5075586;28;20019;-72
2021/03/11 06:27:31;;;;;;;2.92;1.52;;;5.10;75.50;;;;;;5075719;28;20031;-72
2021/03/11 06:29:57;;;;;;;6.28;2.42;;;4.90;75.40;;;;;;5093826;28;20024;-72
2021/03/11 06:32:24;;;;;;;5.57;2.17;;;4.90;76.20;;;;;;5075821;28;20032;-72
2021/03/11 06:34:50;;;;;;;5.28;2.30;;;4.80;76.70;;;;;;5093288;28;20028;-72
2021/03/11 06:37:33;;;;;;;13.02;2.25;;;4.80;76.70;;;;;;5093672;28;20028;-73
2021/03/11 06:40:21;;;;;;;8.95;2.38;;;4.90;76.70;;;;;;5075249;28;20040;-72
2021/03/11 06:42:48;;;;;;;7.40;2.33;;;4.90;75.90;;;;;;5093751;28;20039;-72
2021/03/11 06:45:24;;;;;;;16.15;2.63;;;5.00;75.90;;;;;;5075124;28;20020;-72
2021/03/11 06:47:52;;;;;;;11.70;2.40;;;5.30;76.30;;;;;;5080342;28;20548;-72
2021/03/11 06:50:21;;;;;;;22.63;3.25;;;5.40;74.70;;;;;;5093432;28;20089;-72
2021/03/11 06:53:03;;;;;;;8.40;3.83;;;5.50;73.50;;;;;;5092951;28;20020;-73
2021/03/11 06:55:30;;;;;;;4.90;2.58;;;5.50;72.10;;;;;;5075801;28;20027;-73
2021/03/11 06:58:13;;;;;;;4.15;2.58;;;5.60;70.90;;;;;;5092837;28;20074;-73
2021/03/11 07:00:39;;;;;;;8.98;2.10;;;5.50;72.40;;;;;;5093061;28;20522;-73
2021/03/11 07:03:05;;;;;;;2.33;1.60;;;5.50;75.20;;;;;;5074788;28;20032;-72
2021/03/11 07:05:37;;;;;;;3.65;2.10;;;5.50;76.80;;;;;;5093136;28;20057;-73
2021/03/11 07:08:14;;;;;;;6.82;2.30;;;5.40;79.60;;;;;;5092724;28;20020;-72
2021/03/11 07:10:42;;;;;;;4.22;1.58;;;5.40;80.00;;;;;;5066632;28;20104;-72
2021/03/11 07:13:08;;;;;;;4.63;2.17;;;5.40;80.70;;;;;;5074797;28;20090;-72
2021/03/11 07:15:36;;;;;;;3.28;2.13;;;5.40;79.50;;;;;;5093247;28;20028;-72
2021/03/11 07:18:19;;;;;;;2.63;1.50;;;5.40;80.60;;;;;;5074401;28;20024;-72
2021/03/11 07:20:45;;;;;;;3.25;1.58;;;5.50;79.30;;;;;;5092657;28;20100;-72
2021/03/11 07:23:15;;;;;;;2.10;1.60;;;5.50;78.00;;;;;;5092726;28;20059;-72
2021/03/11 07:25:47;;;;;;;3.40;1.55;;;5.60;75.80;;;;;;5069665;28;20020;-72
2021/03/11 07:28:23;;;;;;;2.72;1.40;;;5.70;76.30;;;;;;5092740;28;20039;-72
2021/03/11 07:30:59;;;;;;;2.72;1.70;;;5.80;74.80;;;;;;5091330;28;20020;-73
2021/03/11 07:33:36;;;;;;;5.05;1.80;;;5.80;75.10;;;;;;5088960;28;20052;-73
2021/03/11 07:36:06;;;;;;;2.38;1.52;;;5.80;75.90;;;;;;5091803;28;20365;-73
2021/03/11 07:38:34;;;;;;;3.17;1.88;;;5.90;74.90;;;;;;5072135;28;20127;-73
2021/03/11 07:41:03;;;;;;;1.80;1.40;;;5.90;75.00;;;;;;5088897;28;20028;-73
2021/03/11 07:43:31;;;;;;;5.63;1.70;;;5.90;75.50;;;;;;5092286;28;20043;-72
2021/03/11 07:46:05;;;;;;;2.58;1.35;;;5.90;76.00;;;;;;5092572;28;20034;-72
2021/03/11 07:48:31;;;;;;;2.42;1.40;;;5.80;76.30;;;;;;5091854;28;20028;-73
2021/03/11 07:50:59;;;;;;;2.72;1.60;;;5.80;77.10;;;;;;5074466;28;20138;-72
2021/03/11 07:53:26;;;;;;;2.90;1.80;;;5.80;78.00;;;;;;5092208;28;20057;-74
2021/03/11 07:55:54;;;;;;;4.43;1.77;;;5.80;78.20;;;;;;5092717;28;20020;-72
2021/03/11 07:58:23;;;;;;;2.15;1.48;;;5.80;79.30;;;;;;5091223;28;20031;-72
2021/03/11 08:00:50;;;;;;;4.47;2.15;;;5.90;81.90;;;;;;5077166;28;20027;-73
2021/03/11 08:03:29;;;;;;;5.35;2.60;;;5.80;81.20;;;;;;5073613;28;20363;-72
2021/03/11 08:05:55;;;;;;;5.70;2.70;;;5.80;82.70;;;;;;5091715;28;20383;-72
2021/03/11 08:08:25;;;;;;;3.55;1.80;;;5.70;83.30;;;;;;5092340;28;20024;-72
2021/03/11 08:10:55;;;;;;;4.95;2.20;;;5.70;83.70;;;;;;5073625;28;20028;-72
2021/03/11 08:13:35;;;;;;;3.17;1.83;;;5.80;85.20;;;;;;5091991;28;20020;-72
2021/03/11 08:16:22;;;;;;;1.90;1.45;;;5.80;84.40;;;;;;5091899;28;20020;-73
2021/03/11 08:18:51;;;;;;;2.55;1.67;;;5.90;84.80;;;;;;5091331;28;20074;-73
2021/03/11 08:21:25;;;;;;;2.30;1.75;;;6.00;84.60;;;;;;5073643;28;20024;-73
2021/03/11 08:23:52;;;;;;;3.03;1.77;;;5.90;83.80;;;;;;5091606;28;20086;-73
2021/03/11 08:26:42;;;;;;;5.63;1.60;;;5.80;83.80;;;;;;5091606;28;20077;-73
2021/03/11 08:29:33;;;;;;;4.78;1.73;;;5.90;85.90;;;;;;5091986;28;20503;-73
2021/03/11 08:31:59;;;;;;;4.18;1.63;;;6.00;86.80;;;;;;5087091;28;20059;-73
2021/03/11 08:34:45;;;;;;;7.25;2.03;;;6.00;87.20;;;;;;5072911;28;20032;-73
2021/03/11 08:37:20;;;;;;;3.40;1.80;;;6.10;88.90;;;;;;5070280;28;20059;-73
2021/03/11 08:39:46;;;;;;;2.28;1.58;;;6.20;89.10;;;;;;5072721;28;20027;-73
2021/03/11 08:42:49;;;;;;;2.28;1.70;;;6.30;88.30;;;;;;5075892;28;20024;-73
2021/03/11 08:45:34;;;;;;;5.70;1.77;;;6.30;86.80;;;;;;5095496;28;20128;-73
2021/03/11 08:48:13;;;;;;;1.67;1.50;;;6.40;86.50;;;;;;5077410;28;20024;-73
2021/03/11 08:50:40;;;;;;;2.40;1.58;;;6.50;85.30;;;;;;5095147;28;20387;-73
2021/03/11 08:53:06;;;;;;;4.32;1.63;;;6.50;86.20;;;;;;5095324;28;20016;-73
2021/03/11 08:55:33;;;;;;;2.63;1.98;;;6.60;87.40;;;;;;5076629;28;20028;-73
2021/03/11 08:58:00;;;;;;;4.32;2.10;;;6.80;86.20;;;;;;5076676;28;20044;-73
2021/03/11 09:00:54;;;;;;;2.97;1.90;;;6.90;86.70;;;;;;5094772;28;20012;-73
2021/03/11 09:03:39;;;;;;;5.68;2.03;;;6.90;83.80;;;;;;5077058;28;20024;-73
2021/03/11 09:06:06;;;;;;;5.28;2.20;;;6.90;83.10;;;;;;5094273;28;20392;-73
2021/03/11 09:08:52;;;;;;;3.40;2.33;;;6.90;84.30;;;;;;5060305;28;20566;-73
2021/03/11 09:11:21;;;;;;;5.03;2.53;;;7.00;84.50;;;;;;5060009;28;20028;-73
2021/03/11 09:13:49;;;;;;;2.90;1.92;;;6.90;83.00;;;;;;5074043;28;20548;-73
2021/03/11 09:16:15;;;;;;;4.13;1.92;;;7.00;83.50;;;;;;5076355;28;20066;-73
2021/03/11 09:18:41;;;;;;;4.03;2.10;;;7.10;84.20;;;;;;5094239;28;20141;-73
2021/03/11 09:21:08;;;;;;;3.72;2.03;;;7.20;83.80;;;;;;5076997;28;20471;-73
2021/03/11 09:23:41;;;;;;;6.20;1.73;;;7.20;82.10;;;;;;5076138;28;20028;-72
2021/03/11 09:26:22;;;;;;;4.70;1.85;;;7.20;84.00;;;;;;5094652;28;20024;-73
2021/03/11 09:28:48;;;;;;;7.45;3.20;;;7.40;82.60;;;;;;5094054;28;20479;-73
2021/03/11 09:31:26;;;;;;;5.82;2.08;;;7.60;82.40;;;;;;5075961;28;20024;-73
2021/03/11 09:33:54;;;;;;;3.10;1.73;;;7.70;83.10;;;;;;5076149;28;20628;-73
2021/03/11 09:36:20;;;;;;;6.40;1.88;;;8.00;82.80;;;;;;5075712;28;20024;-73
2021/03/11 09:38:46;;;;;;;3.58;1.88;;;8.20;82.50;;;;;;5093926;28;20042;-73
2021/03/11 09:41:12;;;;;;;3.20;1.70;;;8.40;81.20;;;;;;5093812;28;20019;-73
2021/03/11 09:43:39;;;;;;;2.58;1.92;;;8.60;81.20;;;;;;5094327;28;20016;-73
2021/03/11 09:46:14;;;;;;;3.70;2.03;;;8.60;78.40;;;;;;5093749;28;20064;-73
2021/03/11 09:48:45;;;;;;;19.20;2.83;;;8.60;79.10;;;;;;5076153;28;20036;-73
2021/03/11 09:51:18;;;;;;;4.18;1.67;;;8.80;80.00;;;;;;5075508;28;20416;-73
2021/03/11 09:53:48;;;;;;;47.67;4.43;;;9.00;77.20;;;;;;5093383;28;20039;-73
2021/03/11 09:56:18;;;;;;;5.85;1.80;;;9.10;78.60;;;;;;5094852;28;20425;-73
2021/03/11 09:58:46;;;;;;;5.78;1.75;;;9.30;76.10;;;;;;5075549;28;20059;-73
2021/03/11 10:01:40;;;;;;;3.28;1.90;;;9.40;75.60;;;;;;5075710;28;20031;-73
2021/03/11 10:04:14;;;;;;;11.75;2.17;;;9.60;75.00;;;;;;5092875;28;20036;-73
2021/03/11 10:06:52;;;;;;;6.25;2.35;;;9.70;74.00;;;;;;5093666;28;20270;-73
2021/03/11 10:09:18;;;;;;;8.82;1.77;;;9.70;71.00;;;;;;5074974;28;20055;-73
2021/03/11 10:11:48;;;;;;;6.88;2.20;;;9.70;71.60;;;;;;5075385;28;20059;-73
2021/03/11 10:14:17;;;;;;;11.00;2.00;;;9.80;72.00;;;;;;5058529;28;20038;-73
2021/03/11 10:16:45;;;;;;;6.47;1.35;;;9.70;71.90;;;;;;5075087;28;20024;-73
2021/03/11 10:19:17;;;;;;;3.63;1.20;;;9.70;72.10;;;;;;5093297;28;20039;-73
2021/03/11 10:21:50;;;;;;;2.30;1.33;;;9.60;71.00;;;;;;5093021;28;20024;-73
2021/03/11 10:24:42;;;;;;;6.22;1.73;;;9.60;70.80;;;;;;5075502;28;20031;-73
2021/03/11 10:27:32;;;;;;;14.15;3.45;;;9.70;71.40;;;;;;5073279;28;20223;-73
2021/03/11 10:30:06;;;;;;;9.57;2.13;;;9.70;72.10;;;;;;5073046;28;20043;-73
2021/03/11 10:32:33;;;;;;;4.60;1.25;;;9.80;72.20;;;;;;5074695;28;20040;-73
2021/03/11 10:34:59;;;;;;;4.28;1.88;;;9.80;71.10;;;;;;5075052;28;20073;-73
2021/03/11 10:37:27;;;;;;;3.00;1.30;;;9.90;71.40;;;;;;5074515;28;20107;-73
2021/03/11 10:39:55;;;;;;;6.07;1.33;;;9.90;70.50;;;;;;5075081;28;20426;-73
2021/03/11 10:42:22;;;;;;;2.85;1.35;;;10.10;69.90;;;;;;5074499;28;20024;-73
2021/03/11 10:45:03;;;;;;;6.18;1.10;;;10.30;69.10;;;;;;5092725;28;20035;-73
2021/03/11 10:47:29;;;;;;;5.53;1.20;;;10.50;67.60;;;;;;5093239;28;20099;-74
2021/03/11 10:49:55;;;;;;;8.05;1.17;;;10.60;66.10;;;;;;5093065;28;20031;-74
2021/03/11 10:52:22;;;;;;;1.77;0.98;;;10.70;66.60;;;;;;5074789;28;20024;-73
2021/03/11 10:54:48;;;;;;;2.22;0.80;;;10.80;66.90;;;;;;5092394;28;20020;-73
2021/03/11 10:57:21;;;;;;;1.48;0.98;;;11.00;66.60;;;;;;5074598;28;20368;-73
2021/03/11 11:00:04;;;;;;;3.50;1.20;;;11.10;65.50;;;;;;5092617;28;20101;-72
2021/03/11 11:02:30;;;;;;;7.80;1.20;;;11.10;66.10;;;;;;5071741;28;20097;-72
2021/03/11 11:05:01;;;;;;;4.88;1.02;;;11.10;66.50;;;;;;5091832;28;20387;-74
2021/03/11 11:07:26;;;;;;;3.15;1.00;;;11.10;66.10;;;;;;5093604;28;20022;-74
2021/03/11 11:09:53;;;;;;;3.42;1.20;;;11.10;66.90;;;;;;5093015;28;20424;-73
2021/03/11 11:12:20;;;;;;;1.35;1.10;;;11.10;66.70;;;;;;5092818;28;20495;-73
2021/03/11 11:14:50;;;;;;;4.05;1.58;;;11.10;67.60;;;;;;5094050;28;20028;-73
2021/03/11 11:17:16;;;;;;;3.15;1.48;;;11.20;68.20;;;;;;5075187;28;20026;-74
2021/03/11 11:19:43;;;;;;;25.63;2.92;;;11.20;68.30;;;;;;5093818;28;20380;-73
2021/03/11 11:22:09;;;;;;;3.58;0.93;;;11.20;67.90;;;;;;5071967;22;20131;-74
2021/03/11 11:24:39;;;;;;;9.82;1.50;;;11.20;68.20;;;;;;5053859;28;20021;-73
2021/03/11 11:27:13;;;;;;;2.95;1.40;;;11.30;67.80;;;;;;5053643;28;20028;-73
2021/03/11 11:29:39;;;;;;;3.92;1.00;;;11.40;67.60;;;;;;5053986;28;20543;-73
2021/03/11 11:32:06;;;;;;;1.45;0.90;;;11.60;65.80;;;;;;5071586;28;20108;-73
2021/03/11 11:34:32;;;;;;;1.00;0.90;;;11.70;65.40;;;;;;5036857;28;20024;-72
2021/03/11 11:36:57;;;;;;;3.38;1.00;;;11.90;66.10;;;;;;5071514;28;20361;-74
2021/03/11 11:39:24;;;;;;;2.33;0.90;;;12.00;65.50;;;;;;5071222;28;20339;-73
2021/03/11 11:41:50;;;;;;;23.70;9.40;;;12.30;65.30;;;;;;5071894;28;20024;-73
2021/03/11 11:44:17;;;;;;;11.25;2.40;;;12.80;64.30;;;;;;5070926;28;20059;-73
2021/03/11 11:46:43;;;;;;;4.63;1.23;;;13.20;63.20;;;;;;5036907;28;20020;-73
2021/03/11 11:49:10;;;;;;;6.68;0.93;;;13.50;62.20;;;;;;5071655;28;20028;-73
2021/03/11 11:51:36;;;;;;;1.40;1.02;;;13.70;60.90;;;;;;5071531;28;20078;-73
2021/03/11 11:54:02;;;;;;;4.53;1.10;;;14.20;60.50;;;;;;5071545;28;20027;-73
2021/03/11 11:56:28;;;;;;;1.58;1.20;;;14.50;60.10;;;;;;5071394;28;20028;-73
2021/03/11 11:58:53;;;;;;;2.55;1.02;;;14.90;59.00;;;;;;5053487;28;20044;-73
2021/03/11 12:01:19;;;;;;;2.00;1.02;;;15.10;58.10;;;;;;5052937;28;20025;-73
2021/03/11 12:03:45;;;;;;;4.53;0.70;;;15.40;58.10;;;;;;5071528;28;20025;-73
2021/03/11 12:06:12;;;;;;;12.38;1.40;;;15.80;57.20;;;;;;5053478;28;20110;-73
2021/03/11 12:08:38;;;;;;;14.45;4.18;;;16.20;56.40;;;;;;5071049;28;20021;-73
2021/03/11 12:11:04;;;;;;;3.67;1.48;;;16.50;56.50;;;;;;5053366;28;20088;-72
2021/03/11 12:13:32;;;;;;;15.18;1.30;;;16.90;55.00;;;;;;5071971;28;20526;-72
2021/03/11 12:15:58;;;;;;;49.97;11.77;;;16.90;55.70;;;;;;5071130;28;20021;-74
2021/03/11 12:18:24;;;;;;;0.70;0.70;;;17.20;55.40;;;;;;5056171;28;20028;-73
2021/03/11 12:20:50;;;;;;;2.40;0.88;;;17.00;55.00;;;;;;5071795;28;20028;-73
2021/03/11 12:23:17;;;;;;;6.38;1.00;;;16.40;56.40;;;;;;5074933;28;20016;-73
2021/03/11 12:25:43;;;;;;;2.72;0.75;;;16.40;56.70;;;;;;5074624;28;20352;-73
2021/03/11 12:28:08;;;;;;;4.07;0.88;;;16.40;56.40;;;;;;5074727;28;20028;-73
2021/03/11 12:30:34;;;;;;;12.43;2.80;;;16.50;56.50;;;;;;5074254;28;20028;-73
2021/03/11 12:33:00;;;;;;;4.47;1.23;;;17.00;56.20;;;;;;5074762;28;20025;-73
2021/03/11 12:35:26;;;;;;;3.03;0.73;;;17.10;55.30;;;;;;5073631;28;20479;-73
2021/03/11 12:37:53;;;;;;;5.97;1.08;;;17.10;55.80;;;;;;5074762;28;20096;-73
2021/03/11 12:40:20;;;;;;;2.63;0.50;;;17.30;56.10;;;;;;5074689;28;20464;-73
2021/03/11 12:42:47;;;;;;;3.40;0.80;;;17.10;55.60;;;;;;5074253;28;20031;-73
2021/03/11 12:45:15;;;;;;;8.50;0.63;;;17.10;56.60;;;;;;5074540;28;20025;-73
2021/03/11 12:47:41;;;;;;;8.57;0.60;;;17.20;56.40;;;;;;5055790;28;20028;-73
2021/03/11 12:50:07;;;;;;;5.40;0.82;;;17.00;56.40;;;;;;5074476;28;20494;-73
2021/03/11 12:52:33;;;;;;;2.20;0.70;;;17.10;57.50;;;;;;5072970;28;20033;-73
2021/03/11 12:54:59;;;;;;;18.45;1.98;;;16.90;57.50;;;;;;5074667;28;20051;-72
2021/03/11 12:57:25;;;;;;;0.80;0.40;;;16.60;58.60;;;;;;5075965;28;20082;-72
2021/03/11 12:59:51;;;;;;;5.13;0.50;;;16.30;59.00;;;;;;5040455;28;20038;-72
2021/03/11 13:02:17;;;;;;;4.00;0.50;;;16.20;59.50;;;;;;5074980;28;20036;-72
2021/03/11 13:04:43;;;;;;;2.78;0.57;;;16.30;59.60;;;;;;5074566;28;20035;-73
2021/03/11 13:07:08;;;;;;;6.03;0.65;;;16.10;60.00;;;;;;5073998;28;20021;-72
2021/03/11 13:09:36;;;;;;;2.60;0.70;;;16.00;59.90;;;;;;5055997;28;20055;-71